createdAt,value
2023-04-11T00:00:15.653Z,76.00
2023-04-11T00:02:43.714Z,76.10
2023-04-11T00:05:11.728Z,76.40
2023-04-11T00:07:39.486Z,76.40
2023-04-11T00:10:07.825Z,75.90
2023-04-11T00:12:35.310Z,76.00
2023-04-11T00:15:02.792Z,75.80
2023-04-11T00:17:31.861Z,76.00
2023-04-11T00:20:01.888Z,76.50
2023-04-11T00:22:30.795Z,76.50
2023-04-11T00:24:58.467Z,76.50
2023-04-11T00:27:26.635Z,76.60
2023-04-11T00:29:56.286Z,76.80
2023-04-11T00:32:24.290Z,77.00
2023-04-11T00:34:52.051Z,77.00
2023-04-11T00:37:22.397Z,77.10
2023-04-11T00:39:53.308Z,76.90
2023-04-11T00:42:20.769Z,77.00
2023-04-11T00:44:48.044Z,77.40
2023-04-11T00:47:15.850Z,77.90
2023-04-11T00:49:43.517Z,78.20
2023-04-11T00:52:12.955Z,78.20
2023-04-11T00:54:40.709Z,77.80
2023-04-11T00:57:09.207Z,77.90
2023-04-11T00:59:37.872Z,77.80
2023-04-11T01:02:06.240Z,77.80
2023-04-11T01:04:33.935Z,77.90
2023-04-11T01:07:06.404Z,77.50
2023-04-11T01:09:36.428Z,77.70
2023-04-11T01:12:05.484Z,77.80
2023-04-11T01:14:32.802Z,78.10
2023-04-11T01:17:02.830Z,78.20
2023-04-11T01:19:31.831Z,78.30
2023-04-11T01:22:01.274Z,78.10
2023-04-11T01:24:29.990Z,78.20
2023-04-11T01:26:58.212Z,78.10
2023-04-11T01:29:25.975Z,78.30
2023-04-11T01:31:53.260Z,78.30
2023-04-11T01:34:21.795Z,78.10
2023-04-11T01:36:52.375Z,77.80
2023-04-11T01:39:19.735Z,77.60
2023-04-11T01:41:50.854Z,77.70
2023-04-11T01:44:20.970Z,77.70
2023-04-11T01:46:49.025Z,78.20
2023-04-11T01:49:18.998Z,78.50
2023-04-11T01:51:48.130Z,78.60
2023-04-11T01:54:15.688Z,78.70
2023-04-11T01:56:43.234Z,79.00
2023-04-11T01:59:10.971Z,79.20
2023-04-11T02:01:39.677Z,79.50
2023-04-11T02:04:07.212Z,79.70
2023-04-11T02:06:35.099Z,80.30
2023-04-11T02:09:02.654Z,80.70
2023-04-11T02:11:30.655Z,80.90
2023-04-11T02:13:58.166Z,80.50
2023-04-11T02:16:26.075Z,80.30
2023-04-11T02:18:54.530Z,80.00
2023-04-11T02:21:22.616Z,79.50
2023-04-11T02:23:51.457Z,79.70
2023-04-11T02:26:18.817Z,79.40
2023-04-11T02:28:46.557Z,79.10
2023-04-11T02:31:16.180Z,78.90
2023-04-11T02:33:44.683Z,78.90
2023-04-11T02:36:12.784Z,78.90
2023-04-11T02:38:40.068Z,79.00
2023-04-11T02:41:08.731Z,79.00
2023-04-11T02:43:36.290Z,79.20
2023-04-11T02:46:12.876Z,79.10
2023-04-11T02:48:44.067Z,78.90
2023-04-11T02:51:13.382Z,80.40
2023-04-11T02:53:41.369Z,80.80
2023-04-11T02:56:19.236Z,80.50
2023-04-11T02:58:52.734Z,80.70
2023-04-11T03:01:25.224Z,80.50
2023-04-11T03:03:54.686Z,80.40
2023-04-11T03:06:25.006Z,80.50
2023-04-11T03:08:57.828Z,79.90
2023-04-11T03:11:25.666Z,79.90
2023-04-11T03:13:54.293Z,79.80
2023-04-11T03:16:22.086Z,79.90
2023-04-11T03:18:49.952Z,79.80
2023-04-11T03:21:17.241Z,79.90
2023-04-11T03:23:45.860Z,79.60
2023-04-11T03:26:15.126Z,79.80
2023-04-11T03:28:44.902Z,79.90
2023-04-11T03:31:17.953Z,79.60
2023-04-11T03:33:47.155Z,79.60
2023-04-11T03:36:14.794Z,79.30
2023-04-11T03:38:43.515Z,79.20
2023-04-11T03:41:11.343Z,79.20
2023-04-11T03:43:38.667Z,79.20
2023-04-11T03:46:08.896Z,79.90
2023-04-11T03:48:40.510Z,80.20
2023-04-11T03:51:09.893Z,80.40
2023-04-11T03:53:43.459Z,80.10
2023-04-11T03:56:27.887Z,80.00
2023-04-11T03:58:55.794Z,79.90
2023-04-11T04:01:30.483Z,80.00
2023-04-11T04:04:02.591Z,79.90
2023-04-11T04:06:32.291Z,80.30
2023-04-11T04:09:04.322Z,80.90
2023-04-11T04:11:43.738Z,81.60
2023-04-11T04:14:11.456Z,81.50
2023-04-11T04:16:38.878Z,81.30
2023-04-11T04:19:08.312Z,80.90
2023-04-11T04:21:38.210Z,81.00
2023-04-11T04:24:06.326Z,80.70
2023-04-11T04:26:50.195Z,81.20
2023-04-11T04:29:38.466Z,81.40
2023-04-11T04:32:11.340Z,81.30
2023-04-11T04:34:50.006Z,80.60
2023-04-11T04:37:27.419Z,80.70
2023-04-11T04:40:21.699Z,80.80
2023-04-11T04:43:11.798Z,80.50
2023-04-11T04:45:49.285Z,80.30
2023-04-11T04:48:25.752Z,80.80
2023-04-11T04:50:53.939Z,80.80
2023-04-11T04:53:21.679Z,80.80
2023-04-11T04:55:56.895Z,80.70
2023-04-11T04:58:27.650Z,80.70
2023-04-11T05:00:56.368Z,80.90
2023-04-11T05:03:29.200Z,80.70
2023-04-11T05:05:59.803Z,80.50
2023-04-11T05:08:27.604Z,80.10
2023-04-11T05:10:58.294Z,80.30
2023-04-11T05:13:26.321Z,80.00
2023-04-11T05:15:54.377Z,80.00
2023-04-11T05:18:25.673Z,80.10
2023-04-11T05:20:53.022Z,80.10
2023-04-11T05:23:24.785Z,80.30
2023-04-11T05:25:54.205Z,80.10
2023-04-11T05:28:22.385Z,79.80
2023-04-11T05:30:49.808Z,79.60
2023-04-11T05:33:17.317Z,79.70
2023-04-11T05:35:45.406Z,79.30
2023-04-11T05:38:12.668Z,79.30
2023-04-11T05:40:40.865Z,79.10
2023-04-11T05:43:11.549Z,79.40
2023-04-11T05:45:41.552Z,79.50
2023-04-11T05:48:09.045Z,79.30
2023-04-11T05:50:37.027Z,80.10
2023-04-11T05:53:05.634Z,80.10
2023-04-11T05:55:33.284Z,79.50
2023-04-11T05:58:00.832Z,79.60
2023-04-11T06:00:33.234Z,79.40
2023-04-11T06:03:02.953Z,79.40
2023-04-11T06:05:31.837Z,79.90
2023-04-11T06:08:00.206Z,80.00
2023-04-11T06:10:29.839Z,79.50
2023-04-11T06:12:58.083Z,79.00
2023-04-11T06:15:30.634Z,79.50
2023-04-11T06:17:58.106Z,79.50
2023-04-11T06:20:25.929Z,79.50
2023-04-11T06:22:53.485Z,79.90
2023-04-11T06:25:22.168Z,79.60
2023-04-11T06:27:50.216Z,79.20
2023-04-11T06:30:18.862Z,78.70
2023-04-11T06:32:47.032Z,77.90
2023-04-11T06:35:14.357Z,77.70
2023-04-11T06:37:42.856Z,77.90
2023-04-11T06:40:10.677Z,77.80
2023-04-11T06:42:38.853Z,78.10
2023-04-11T06:45:06.885Z,78.10
2023-04-11T06:47:35.208Z,78.20
2023-04-11T06:50:05.954Z,77.90
2023-04-11T06:52:33.997Z,77.30
2023-04-11T06:55:01.926Z,77.10
2023-04-11T06:57:29.192Z,77.00
2023-04-11T06:59:56.578Z,77.00
2023-04-11T07:02:25.418Z,76.20
2023-04-11T07:04:53.555Z,75.50
2023-04-11T07:07:21.060Z,75.10
2023-04-11T07:09:48.608Z,74.40
2023-04-11T07:12:15.847Z,74.40
2023-04-11T07:14:43.794Z,75.00
2023-04-11T07:17:11.420Z,74.20
2023-04-11T07:19:38.696Z,74.10
2023-04-11T07:22:06.504Z,74.70
2023-04-11T07:24:33.939Z,74.60
2023-04-11T07:27:04.380Z,74.20
2023-04-11T07:29:32.150Z,73.70
2023-04-11T07:32:00.670Z,72.60
2023-04-11T07:34:28.260Z,73.20
2023-04-11T07:37:01.364Z,73.10
2023-04-11T07:39:29.205Z,73.10
2023-04-11T07:41:56.958Z,70.70
2023-04-11T07:44:24.712Z,69.60
2023-04-11T07:46:52.655Z,69.70
2023-04-11T07:49:20.009Z,68.70
2023-04-11T07:51:47.441Z,68.00
2023-04-11T07:54:14.679Z,68.60
2023-04-11T07:56:42.029Z,68.90
2023-04-11T07:59:09.383Z,68.40
2023-04-11T08:01:36.789Z,68.10
2023-04-11T08:04:04.687Z,67.30
2023-04-11T08:06:32.512Z,67.30
2023-04-11T08:09:01.245Z,66.70
2023-04-11T08:11:28.601Z,66.50
2023-04-11T08:13:57.433Z,67.60
2023-04-11T08:16:25.804Z,66.80
2023-04-11T08:18:53.402Z,67.10
2023-04-11T08:21:24.239Z,67.20
2023-04-11T08:23:52.041Z,66.20
2023-04-11T08:26:21.487Z,66.40
2023-04-11T08:28:49.106Z,66.70
2023-04-11T08:31:16.791Z,66.40
2023-04-11T08:33:45.584Z,66.80
2023-04-11T08:36:13.168Z,66.50
2023-04-11T08:38:41.245Z,66.70
2023-04-11T08:41:08.840Z,67.40
2023-04-11T08:43:37.893Z,66.80
2023-04-11T08:46:05.880Z,67.00
2023-04-11T08:48:34.026Z,67.00
2023-04-11T08:51:01.601Z,66.30
2023-04-11T08:53:30.652Z,65.50
2023-04-11T08:55:59.030Z,67.70
2023-04-11T08:58:26.839Z,65.60
2023-04-11T09:00:54.451Z,65.10
2023-04-11T09:03:22.687Z,65.60
2023-04-11T09:05:50.131Z,64.10
2023-04-11T09:08:18.070Z,64.60
2023-04-11T09:10:46.515Z,64.70
2023-04-11T09:13:22.270Z,63.50
2023-04-11T09:16:09.619Z,64.20
2023-04-11T09:18:39.659Z,63.20
2023-04-11T09:21:09.255Z,63.50
2023-04-11T09:23:36.904Z,64.70
2023-04-11T09:26:06.859Z,62.70
2023-04-11T09:28:44.921Z,63.70
2023-04-11T09:31:13.756Z,61.90
2023-04-11T09:33:53.645Z,62.10
2023-04-11T09:36:23.354Z,60.80
2023-04-11T09:38:51.998Z,59.90
2023-04-11T09:41:48.848Z,60.60
2023-04-11T09:44:16.461Z,62.30
2023-04-11T09:46:59.995Z,60.90
2023-04-11T09:49:28.020Z,61.30
2023-04-11T09:51:57.828Z,58.70
2023-04-11T09:54:28.062Z,59.50
2023-04-11T09:56:56.773Z,58.40
2023-04-11T09:59:27.937Z,58.80
2023-04-11T10:01:56.858Z,58.20
2023-04-11T10:04:28.234Z,59.30
2023-04-11T10:07:17.297Z,57.00
2023-04-11T10:09:46.476Z,57.60
2023-04-11T10:12:29.830Z,58.00
2023-04-11T10:14:57.267Z,56.20
2023-04-11T10:17:25.780Z,56.70
2023-04-11T10:19:58.874Z,56.20
2023-04-11T10:22:42.019Z,57.20
2023-04-11T10:25:21.357Z,55.50
2023-04-11T10:27:53.612Z,54.10
2023-04-11T10:30:40.936Z,56.10
2023-04-11T10:33:16.128Z,54.80
2023-04-11T10:36:06.083Z,57.30
2023-04-11T10:38:51.609Z,57.40
2023-04-11T10:41:23.831Z,57.60
2023-04-11T10:43:52.384Z,55.70
2023-04-11T10:46:25.038Z,57.80
2023-04-11T10:49:06.019Z,55.00
2023-04-11T10:51:34.354Z,55.80
2023-04-11T10:54:02.635Z,55.90
2023-04-11T10:56:50.818Z,55.70
2023-04-11T10:59:36.067Z,55.20
2023-04-11T11:02:04.474Z,53.10
2023-04-11T11:04:32.493Z,55.10
2023-04-11T11:07:04.844Z,55.90
2023-04-11T11:09:32.976Z,55.20
2023-04-11T11:12:11.295Z,54.70
2023-04-11T11:14:41.404Z,55.00
2023-04-11T11:17:09.323Z,54.80
2023-04-11T11:19:37.395Z,55.90
2023-04-11T11:22:06.334Z,55.10
2023-04-11T11:24:34.280Z,54.70
2023-04-11T11:27:01.702Z,54.30
2023-04-11T11:29:35.671Z,55.00
2023-04-11T11:32:04.069Z,55.00
2023-04-11T11:34:35.904Z,54.50
2023-04-11T11:37:05.476Z,54.40
2023-04-11T11:39:34.411Z,55.80
2023-04-11T11:42:02.095Z,58.20
2023-04-11T11:44:31.483Z,58.50
2023-04-11T11:47:10.264Z,58.60
2023-04-11T11:49:51.434Z,58.80
2023-04-11T11:52:40.055Z,58.50
2023-04-11T11:55:29.400Z,59.90
2023-04-11T11:58:02.987Z,62.80
2023-04-11T12:00:39.477Z,61.90
2023-04-11T12:03:13.247Z,63.40
2023-04-11T12:05:43.704Z,63.40
2023-04-11T12:08:11.149Z,62.50
2023-04-11T12:10:40.169Z,62.10
2023-04-11T12:13:22.407Z,62.50
2023-04-11T12:15:58.411Z,64.00
2023-04-11T12:18:28.332Z,63.10
2023-04-11T12:20:55.774Z,63.60
2023-04-11T12:23:23.499Z,63.50
2023-04-11T12:25:51.242Z,63.50
2023-04-11T12:28:18.821Z,62.50
2023-04-11T12:30:46.255Z,61.80
2023-04-11T12:33:13.886Z,60.80
2023-04-11T12:35:41.512Z,61.80
2023-04-11T12:38:09.258Z,61.60
2023-04-11T12:40:37.594Z,62.30
2023-04-11T12:43:05.129Z,62.30
2023-04-11T12:45:35.279Z,61.80
2023-04-11T12:48:03.566Z,60.60
2023-04-11T12:50:31.106Z,61.70
2023-04-11T12:52:58.479Z,60.70
2023-04-11T12:55:25.882Z,61.50
2023-04-11T12:57:53.767Z,62.30
2023-04-11T13:00:26.834Z,60.90
2023-04-11T13:02:57.244Z,62.90
2023-04-11T13:05:25.035Z,62.70
2023-04-11T13:07:52.450Z,62.30
2023-04-11T13:10:20.213Z,61.50
2023-04-11T13:12:48.676Z,62.10
2023-04-11T13:15:17.440Z,61.80
2023-04-11T13:17:45.809Z,62.10
2023-04-11T13:20:16.517Z,59.90
2023-04-11T13:22:44.779Z,62.00
2023-04-11T13:25:12.623Z,62.50
2023-04-11T13:27:41.891Z,61.50
2023-04-11T13:30:10.786Z,61.50
2023-04-11T13:32:38.502Z,62.80
2023-04-11T13:35:07.306Z,62.10
2023-04-11T13:37:36.016Z,61.80
2023-04-11T13:40:06.407Z,61.60
2023-04-11T13:42:34.037Z,61.50
2023-04-11T13:45:01.890Z,62.30
2023-04-11T13:47:29.339Z,61.60
2023-04-11T13:49:57.151Z,60.20
2023-04-11T13:52:24.488Z,62.00
2023-04-11T13:54:52.024Z,61.60
2023-04-11T13:57:20.067Z,60.80
2023-04-11T13:59:47.377Z,62.00
2023-04-11T14:02:16.030Z,60.60
2023-04-11T14:04:44.031Z,60.10
2023-04-11T14:07:11.363Z,61.50
2023-04-11T14:09:38.735Z,59.80
2023-04-11T14:12:06.277Z,59.70
2023-04-11T14:14:34.065Z,59.30
2023-04-11T14:17:01.835Z,59.90
2023-04-11T14:19:29.180Z,58.90
2023-04-11T14:21:58.005Z,58.40
2023-04-11T14:24:25.407Z,59.20
2023-04-11T14:26:53.186Z,60.30
2023-04-11T14:29:22.412Z,59.30
2023-04-11T14:31:50.892Z,58.70
2023-04-11T14:34:18.782Z,59.70
2023-04-11T14:36:46.042Z,59.70
2023-04-11T14:39:13.363Z,59.30
2023-04-11T14:41:41.218Z,58.90
2023-04-11T14:44:08.527Z,59.70
2023-04-11T14:46:37.785Z,60.10
2023-04-11T14:49:06.119Z,58.80
2023-04-11T14:51:34.347Z,59.20
2023-04-11T14:54:01.866Z,60.00
2023-04-11T14:56:29.442Z,59.60
2023-04-11T14:58:58.624Z,60.60
2023-04-11T15:01:27.307Z,59.30
2023-04-11T15:03:55.084Z,58.70
2023-04-11T15:06:22.511Z,58.80
2023-04-11T15:08:50.510Z,59.80
2023-04-11T15:11:18.454Z,59.00
2023-04-11T15:13:48.363Z,54.40
2023-04-11T15:16:18.797Z,54.60
2023-04-11T15:18:47.673Z,54.80
2023-04-11T15:21:16.018Z,55.60
2023-04-11T15:23:45.050Z,53.90
2023-04-11T15:26:12.432Z,53.60
2023-04-11T15:28:40.192Z,55.50
2023-04-11T15:31:09.662Z,54.80
2023-04-11T15:33:38.429Z,55.10
2023-04-11T15:36:06.503Z,54.50
2023-04-11T15:38:36.768Z,53.50
2023-04-11T15:41:04.473Z,54.10
2023-04-11T15:43:32.562Z,53.40
2023-04-11T15:46:03.617Z,52.80
2023-04-11T15:48:31.063Z,53.40
2023-04-11T15:50:59.010Z,55.40
2023-04-11T15:53:26.712Z,55.70
2023-04-11T15:55:54.646Z,54.70
2023-04-11T15:58:21.928Z,54.20
2023-04-11T16:00:49.356Z,54.50
2023-04-11T16:03:18.281Z,54.10
2023-04-11T16:05:45.860Z,54.00
2023-04-11T16:08:13.772Z,55.00
2023-04-11T16:10:41.505Z,55.60
2023-04-11T16:13:09.478Z,55.60
2023-04-11T16:15:38.929Z,56.40
2023-04-11T16:18:13.099Z,55.40
2023-04-11T16:20:40.621Z,55.00
2023-04-11T16:23:08.205Z,53.40
2023-04-11T16:25:36.316Z,52.80
2023-04-11T16:28:03.793Z,53.40
2023-04-11T16:30:33.445Z,52.90
2023-04-11T16:33:01.660Z,52.90
2023-04-11T16:35:28.941Z,53.40
2023-04-11T16:37:56.867Z,54.30
2023-04-11T16:40:24.539Z,53.90
2023-04-11T16:43:20.400Z,54.80
2023-04-11T16:46:15.778Z,57.30
2023-04-11T16:48:49.292Z,56.50
2023-04-11T16:51:40.175Z,56.80
2023-04-11T16:54:11.037Z,57.60
2023-04-11T16:56:38.431Z,58.10
2023-04-11T16:59:05.868Z,58.20
2023-04-11T17:01:33.389Z,58.50
2023-04-11T17:04:01.581Z,58.40
2023-04-11T17:06:29.192Z,59.20
2023-04-11T17:08:57.842Z,59.40
2023-04-11T17:11:25.408Z,59.40
2023-04-11T17:13:55.269Z,59.30
2023-04-11T17:16:23.015Z,59.80
2023-04-11T17:18:50.393Z,60.30
2023-04-11T17:21:18.378Z,60.70
2023-04-11T17:23:47.701Z,60.80
2023-04-11T17:26:16.979Z,60.80
2023-04-11T17:28:45.764Z,61.60
2023-04-11T17:31:14.086Z,61.50
2023-04-11T17:33:42.758Z,61.90
2023-04-11T17:36:43.617Z,62.60
2023-04-11T17:39:56.797Z,62.10
2023-04-11T17:42:26.810Z,62.10
2023-04-11T17:44:55.850Z,62.40
2023-04-11T17:47:26.958Z,62.70
2023-04-11T17:49:55.068Z,62.80
2023-04-11T17:52:23.697Z,63.10
2023-04-11T17:54:51.530Z,64.00
2023-04-11T17:57:18.834Z,64.20
2023-04-11T17:59:47.324Z,64.00
2023-04-11T18:02:15.240Z,64.00
2023-04-11T18:04:42.676Z,63.50
2023-04-11T18:07:10.068Z,64.10
2023-04-11T18:09:38.103Z,64.50
2023-04-11T18:12:05.433Z,64.40
2023-04-11T18:14:34.330Z,64.90
2023-04-11T18:17:02.026Z,64.60
2023-04-11T18:19:29.695Z,64.90
2023-04-11T18:21:57.432Z,65.50
2023-04-11T18:24:24.796Z,65.20
2023-04-11T18:26:52.840Z,65.20
2023-04-11T18:29:20.124Z,65.50
2023-04-11T18:31:47.464Z,66.00
2023-04-11T18:34:15.121Z,65.70
2023-04-11T18:36:43.388Z,66.50
2023-04-11T18:39:11.664Z,66.50
2023-04-11T18:41:39.562Z,66.50
2023-04-11T18:44:09.533Z,66.00
2023-04-11T18:46:37.835Z,65.80
2023-04-11T18:49:06.129Z,65.40
2023-04-11T18:51:35.915Z,66.10
2023-04-11T18:54:04.157Z,65.60
2023-04-11T18:56:33.387Z,65.50
2023-04-11T18:59:06.581Z,65.70
2023-04-11T19:01:35.593Z,65.50
2023-04-11T19:04:03.545Z,65.10
2023-04-11T19:06:31.362Z,64.50
2023-04-11T19:08:58.979Z,64.90
2023-04-11T19:11:26.397Z,64.80
2023-04-11T19:13:55.488Z,64.80
2023-04-11T19:16:22.913Z,65.00
2023-04-11T19:18:51.689Z,65.30
2023-04-11T19:21:18.929Z,64.60
2023-04-11T19:23:46.260Z,63.60
2023-04-11T19:26:15.070Z,64.50
2023-04-11T19:28:42.553Z,63.70
2023-04-11T19:31:10.129Z,63.70
2023-04-11T19:33:39.362Z,63.70
2023-04-11T19:36:06.842Z,64.30
2023-04-11T19:38:35.116Z,64.20
2023-04-11T19:41:19.803Z,64.30
2023-04-11T19:43:50.021Z,63.70
2023-04-11T19:46:18.465Z,62.70
2023-04-11T19:48:47.094Z,63.00
2023-04-11T19:51:15.479Z,63.50
2023-04-11T19:53:44.401Z,62.90
2023-04-11T19:56:12.099Z,63.00
2023-04-11T19:58:40.062Z,63.10
2023-04-11T20:01:08.464Z,63.30
2023-04-11T20:03:36.234Z,64.40
2023-04-11T20:06:05.749Z,64.90
2023-04-11T20:08:37.234Z,65.00
2023-04-11T20:11:06.163Z,65.50
2023-04-11T20:13:37.236Z,65.60
2023-04-11T20:16:08.606Z,66.30
2023-04-11T20:18:37.208Z,66.10
2023-04-11T20:21:06.597Z,66.90
2023-04-11T20:23:35.653Z,66.90
2023-04-11T20:26:02.914Z,66.90
2023-04-11T20:28:30.701Z,66.80
2023-04-11T20:30:59.592Z,66.80
2023-04-11T20:33:27.588Z,67.90
2023-04-11T20:35:57.397Z,67.90
2023-04-11T20:38:26.468Z,68.40
2023-04-11T20:40:53.680Z,69.00
2023-04-11T20:43:21.034Z,69.10
2023-04-11T20:45:48.300Z,69.20
2023-04-11T20:48:16.702Z,68.80
2023-04-11T20:50:47.366Z,68.60
2023-04-11T20:53:14.791Z,68.90
2023-04-11T20:55:42.125Z,68.90
2023-04-11T20:58:11.243Z,69.00
2023-04-11T21:00:42.982Z,69.40
2023-04-11T21:03:10.338Z,69.80
2023-04-11T21:05:38.766Z,71.00
2023-04-11T21:08:06.767Z,71.50
2023-04-11T21:10:34.030Z,71.80
2023-04-11T21:13:01.674Z,72.40
2023-04-11T21:15:32.403Z,72.80
2023-04-11T21:17:59.949Z,72.90
2023-04-11T21:20:27.318Z,73.30
2023-04-11T21:22:54.926Z,73.10
2023-04-11T21:25:23.782Z,72.80
2023-04-11T21:27:51.355Z,72.70
2023-04-11T21:30:22.999Z,72.80
2023-04-11T21:32:52.632Z,72.70
2023-04-11T21:35:20.035Z,72.50
2023-04-11T21:37:49.246Z,72.50
2023-04-11T21:40:17.643Z,72.40
2023-04-11T21:42:46.867Z,73.20
2023-04-11T21:45:16.215Z,72.70
2023-04-11T21:47:43.991Z,74.10
2023-04-11T21:50:11.631Z,73.80
2023-04-11T21:52:39.249Z,74.60
2023-04-11T21:55:09.093Z,75.30
2023-04-11T21:57:37.616Z,75.80
2023-04-11T22:00:06.467Z,76.70
2023-04-11T22:02:40.118Z,77.00
2023-04-11T22:05:09.616Z,76.90
2023-04-11T22:07:49.253Z,77.00
2023-04-11T22:10:23.332Z,76.90
2023-04-11T22:12:54.039Z,77.20
2023-04-11T22:15:27.613Z,76.60
2023-04-11T22:17:56.785Z,76.80
2023-04-11T22:20:24.211Z,77.10
2023-04-11T22:22:51.516Z,76.70
2023-04-11T22:25:22.581Z,76.60
2023-04-11T22:27:50.091Z,76.50
2023-04-11T22:30:20.233Z,76.40
2023-04-11T22:32:51.371Z,76.90
2023-04-11T22:35:19.190Z,76.10
2023-04-11T22:37:47.216Z,76.70
2023-04-11T22:40:18.092Z,76.30
2023-04-11T22:42:47.104Z,77.40
2023-04-11T22:45:14.481Z,77.30
2023-04-11T22:47:45.978Z,78.40
2023-04-11T22:50:17.981Z,78.10
2023-04-11T22:52:46.271Z,78.70
2023-04-11T22:55:16.246Z,79.10
2023-04-11T22:57:43.518Z,78.70
2023-04-11T23:00:12.694Z,78.70
2023-04-11T23:02:40.142Z,78.70
2023-04-11T23:05:08.789Z,78.50
2023-04-11T23:07:36.378Z,78.50
2023-04-11T23:10:06.196Z,78.20
2023-04-11T23:12:34.021Z,79.00
2023-04-11T23:15:03.176Z,79.10
2023-04-11T23:17:30.722Z,79.80
2023-04-11T23:19:59.678Z,81.00
2023-04-11T23:22:27.795Z,80.70
2023-04-11T23:25:06.962Z,80.60
2023-04-11T23:27:34.361Z,80.60
2023-04-11T23:30:01.982Z,80.30
2023-04-11T23:32:29.778Z,80.40
2023-04-11T23:34:57.905Z,79.70
2023-04-11T23:37:27.670Z,79.50
2023-04-11T23:39:55.063Z,79.30
2023-04-11T23:42:22.833Z,79.50
2023-04-11T23:44:50.955Z,79.90
2023-04-11T23:47:18.248Z,79.90
2023-04-11T23:49:46.021Z,80.20
2023-04-11T23:52:14.216Z,80.20
2023-04-11T23:54:41.823Z,80.30
2023-04-11T23:57:09.423Z,80.90
2023-04-11T23:59:37.104Z,81.50
